sensor_id;sensor_type;location;lat;lon;timestamp;P1;durP1;ratioP1;P2;durP2;ratioP2
18443;SDS011;9350;53.176;8.194;2022-09-09T00:02:09;16.60;;;9.65;;
18443;SDS011;9350;53.176;8.194;2022-09-09T00:04:43;16.60;;;10.15;;
18443;SDS011;9350;53.176;8.194;2022-09-09T00:07:15;19.88;;;10.38;;
18443;SDS011;9350;53.176;8.194;2022-09-09T00:09:49;19.05;;;10.82;;
18443;SDS011;9350;53.176;8.194;2022-09-09T00:12:29;19.20;;;11.25;;
18443;SDS011;9350;53.176;8.194;2022-09-09T00:15:02;21.75;;;11.18;;
18443;SDS011;9350;53.176;8.194;2022-09-09T00:17:35;17.20;;;9.95;;
18443;SDS011;9350;53.176;8.194;2022-09-09T00:20:09;17.27;;;11.30;;
18443;SDS011;9350;53.176;8.194;2022-09-09T00:22:40;27.38;;;11.98;;
18443;SDS011;9350;53.176;8.194;2022-09-09T00:25:14;20.52;;;11.65;;
18443;SDS011;9350;53.176;8.194;2022-09-09T00:27:48;28.25;;;12.25;;
18443;SDS011;9350;53.176;8.194;2022-09-09T00:30:17;23.92;;;12.45;;
18443;SDS011;9350;53.176;8.194;2022-09-09T00:32:48;26.58;;;12.93;;
18443;SDS011;9350;53.176;8.194;2022-09-09T00:35:17;28.33;;;14.05;;
18443;SDS011;9350;53.176;8.194;2022-09-09T00:37:49;32.10;;;14.90;;
18443;SDS011;9350;53.176;8.194;2022-09-09T00:40:22;30.48;;;14.02;;
18443;SDS011;9350;53.176;8.194;2022-09-09T00:42:58;29.75;;;14.20;;
18443;SDS011;9350;53.176;8.194;2022-09-09T00:45:42;25.00;;;13.57;;
18443;SDS011;9350;53.176;8.194;2022-09-09T00:48:39;24.88;;;13.75;;
18443;SDS011;9350;53.176;8.194;2022-09-09T00:51:14;21.92;;;13.18;;
18443;SDS011;9350;53.176;8.194;2022-09-09T00:53:56;20.70;;;12.98;;
18443;SDS011;9350;53.176;8.194;2022-09-09T00:56:36;19.27;;;12.57;;
18443;SDS011;9350;53.176;8.194;2022-09-09T00:59:12;20.88;;;12.65;;
18443;SDS011;9350;53.176;8.194;2022-09-09T01:01:48;17.67;;;12.20;;
18443;SDS011;9350;53.176;8.194;2022-09-09T01:04:18;16.48;;;11.93;;
18443;SDS011;9350;53.176;8.194;2022-09-09T01:06:55;16.17;;;11.27;;
18443;SDS011;9350;53.176;8.194;2022-09-09T01:09:27;19.42;;;12.07;;
18443;SDS011;9350;53.176;8.194;2022-09-09T01:12:01;16.98;;;12.25;;
18443;SDS011;9350;53.176;8.194;2022-09-09T01:14:39;17.35;;;12.48;;
18443;SDS011;9350;53.176;8.194;2022-09-09T01:17:11;17.95;;;11.98;;
18443;SDS011;9350;53.176;8.194;2022-09-09T01:19:45;17.95;;;12.52;;
18443;SDS011;9350;53.176;8.194;2022-09-09T01:22:21;16.85;;;11.90;;
18443;SDS011;9350;53.176;8.194;2022-09-09T01:25:06;17.27;;;12.52;;
18443;SDS011;9350;53.176;8.194;2022-09-09T01:27:44;15.77;;;11.70;;
18443;SDS011;9350;53.176;8.194;2022-09-09T01:30:14;19.80;;;12.73;;
18443;SDS011;9350;53.176;8.194;2022-09-09T01:32:44;24.73;;;12.50;;
18443;SDS011;9350;53.176;8.194;2022-09-09T01:35:12;17.58;;;11.60;;
18443;SDS011;9350;53.176;8.194;2022-09-09T01:37:48;16.27;;;11.52;;
18443;SDS011;9350;53.176;8.194;2022-09-09T01:40:14;17.65;;;11.30;;
18443;SDS011;9350;53.176;8.194;2022-09-09T01:42:41;15.43;;;10.95;;
18443;SDS011;9350;53.176;8.194;2022-09-09T01:45:09;17.98;;;11.43;;
18443;SDS011;9350;53.176;8.194;2022-09-09T01:47:36;13.77;;;11.40;;
18443;SDS011;9350;53.176;8.194;2022-09-09T01:50:04;15.13;;;11.20;;
18443;SDS011;9350;53.176;8.194;2022-09-09T01:52:32;17.55;;;11.60;;
18443;SDS011;9350;53.176;8.194;2022-09-09T01:55:02;18.95;;;12.00;;
18443;SDS011;9350;53.176;8.194;2022-09-09T01:57:30;19.73;;;12.50;;
18443;SDS011;9350;53.176;8.194;2022-09-09T02:00:02;17.60;;;11.85;;
18443;SDS011;9350;53.176;8.194;2022-09-09T02:02:35;16.08;;;10.88;;
18443;SDS011;9350;53.176;8.194;2022-09-09T02:05:10;14.30;;;11.38;;
18443;SDS011;9350;53.176;8.194;2022-09-09T02:07:44;19.55;;;12.50;;
18443;SDS011;9350;53.176;8.194;2022-09-09T02:10:15;17.95;;;12.05;;
18443;SDS011;9350;53.176;8.194;2022-09-09T02:12:45;16.35;;;12.35;;
18443;SDS011;9350;53.176;8.194;2022-09-09T02:15:17;19.83;;;12.77;;
18443;SDS011;9350;53.176;8.194;2022-09-09T02:17:48;17.52;;;12.30;;
18443;SDS011;9350;53.176;8.194;2022-09-09T02:20:18;16.20;;;12.02;;
18443;SDS011;9350;53.176;8.194;2022-09-09T02:22:47;16.50;;;12.73;;
18443;SDS011;9350;53.176;8.194;2022-09-09T02:25:17;18.23;;;11.32;;
18443;SDS011;9350;53.176;8.194;2022-09-09T02:27:47;15.43;;;11.70;;
18443;SDS011;9350;53.176;8.194;2022-09-09T02:30:16;13.40;;;10.55;;
18443;SDS011;9350;53.176;8.194;2022-09-09T02:32:44;19.05;;;11.63;;
18443;SDS011;9350;53.176;8.194;2022-09-09T02:35:17;14.82;;;10.88;;
18443;SDS011;9350;53.176;8.194;2022-09-09T02:37:47;16.05;;;10.90;;
18443;SDS011;9350;53.176;8.194;2022-09-09T02:40:16;17.95;;;10.65;;
18443;SDS011;9350;53.176;8.194;2022-09-09T02:42:43;15.25;;;11.40;;
18443;SDS011;9350;53.176;8.194;2022-09-09T02:45:12;15.98;;;10.77;;
18443;SDS011;9350;53.176;8.194;2022-09-09T02:47:42;17.42;;;11.20;;
18443;SDS011;9350;53.176;8.194;2022-09-09T02:50:19;17.05;;;11.75;;
18443;SDS011;9350;53.176;8.194;2022-09-09T02:52:56;18.88;;;12.00;;
18443;SDS011;9350;53.176;8.194;2022-09-09T02:55:35;18.42;;;11.88;;
18443;SDS011;9350;53.176;8.194;2022-09-09T02:58:05;20.42;;;12.18;;
18443;SDS011;9350;53.176;8.194;2022-09-09T03:00:35;15.13;;;10.75;;
18443;SDS011;9350;53.176;8.194;2022-09-09T03:03:02;16.33;;;11.27;;
18443;SDS011;9350;53.176;8.194;2022-09-09T03:05:31;17.45;;;11.90;;
18443;SDS011;9350;53.176;8.194;2022-09-09T03:07:57;20.88;;;12.25;;
18443;SDS011;9350;53.176;8.194;2022-09-09T03:10:24;22.98;;;11.73;;
18443;SDS011;9350;53.176;8.194;2022-09-09T03:12:51;15.98;;;11.20;;
18443;SDS011;9350;53.176;8.194;2022-09-09T03:15:18;18.27;;;12.10;;
18443;SDS011;9350;53.176;8.194;2022-09-09T03:17:45;18.08;;;12.30;;
18443;SDS011;9350;53.176;8.194;2022-09-09T03:20:12;17.30;;;11.30;;
18443;SDS011;9350;53.176;8.194;2022-09-09T03:22:40;22.77;;;11.80;;
18443;SDS011;9350;53.176;8.194;2022-09-09T03:25:07;17.80;;;11.15;;
18443;SDS011;9350;53.176;8.194;2022-09-09T03:27:35;21.02;;;12.02;;
18443;SDS011;9350;53.176;8.194;2022-09-09T03:30:02;19.55;;;11.18;;
18443;SDS011;9350;53.176;8.194;2022-09-09T03:32:30;18.80;;;12.23;;
18443;SDS011;9350;53.176;8.194;2022-09-09T03:34:57;16.55;;;11.02;;
18443;SDS011;9350;53.176;8.194;2022-09-09T03:37:23;19.98;;;11.63;;
18443;SDS011;9350;53.176;8.194;2022-09-09T03:39:52;15.48;;;10.85;;
18443;SDS011;9350;53.176;8.194;2022-09-09T03:42:19;16.33;;;10.68;;
18443;SDS011;9350;53.176;8.194;2022-09-09T03:44:47;18.70;;;11.02;;
18443;SDS011;9350;53.176;8.194;2022-09-09T03:47:15;16.95;;;10.60;;
18443;SDS011;9350;53.176;8.194;2022-09-09T03:49:43;16.60;;;9.63;;
18443;SDS011;9350;53.176;8.194;2022-09-09T03:52:10;15.77;;;10.15;;
18443;SDS011;9350;53.176;8.194;2022-09-09T03:54:36;18.25;;;9.52;;
18443;SDS011;9350;53.176;8.194;2022-09-09T03:57:05;12.50;;;10.13;;
18443;SDS011;9350;53.176;8.194;2022-09-09T03:59:32;18.38;;;10.20;;
18443;SDS011;9350;53.176;8.194;2022-09-09T04:02:00;19.90;;;9.95;;
18443;SDS011;9350;53.176;8.194;2022-09-09T04:04:27;15.82;;;10.18;;
18443;SDS011;9350;53.176;8.194;2022-09-09T04:06:53;16.67;;;9.73;;
18443;SDS011;9350;53.176;8.194;2022-09-09T04:09:20;16.60;;;9.98;;
18443;SDS011;9350;53.176;8.194;2022-09-09T04:11:48;14.52;;;9.77;;
18443;SDS011;9350;53.176;8.194;2022-09-09T04:14:16;11.20;;;9.35;;
18443;SDS011;9350;53.176;8.194;2022-09-09T04:16:43;13.73;;;9.23;;
18443;SDS011;9350;53.176;8.194;2022-09-09T04:19:10;14.10;;;9.73;;
18443;SDS011;9350;53.176;8.194;2022-09-09T04:21:38;11.93;;;9.02;;
18443;SDS011;9350;53.176;8.194;2022-09-09T04:24:06;12.07;;;8.80;;
18443;SDS011;9350;53.176;8.194;2022-09-09T04:26:33;13.98;;;9.25;;
18443;SDS011;9350;53.176;8.194;2022-09-09T04:29:01;12.43;;;9.07;;
18443;SDS011;9350;53.176;8.194;2022-09-09T04:31:29;13.80;;;9.15;;
18443;SDS011;9350;53.176;8.194;2022-09-09T04:33:56;22.83;;;9.48;;
18443;SDS011;9350;53.176;8.194;2022-09-09T04:36:23;15.45;;;8.43;;
18443;SDS011;9350;53.176;8.194;2022-09-09T04:38:50;13.13;;;8.75;;
18443;SDS011;9350;53.176;8.194;2022-09-09T04:41:17;12.10;;;8.75;;
18443;SDS011;9350;53.176;8.194;2022-09-09T04:43:44;13.60;;;8.32;;
18443;SDS011;9350;53.176;8.194;2022-09-09T04:46:11;15.43;;;8.63;;
18443;SDS011;9350;53.176;8.194;2022-09-09T04:48:39;13.60;;;7.50;;
18443;SDS011;9350;53.176;8.194;2022-09-09T04:51:06;12.02;;;7.88;;
18443;SDS011;9350;53.176;8.194;2022-09-09T04:53:35;18.75;;;8.35;;
18443;SDS011;9350;53.176;8.194;2022-09-09T04:56:03;12.57;;;8.05;;
18443;SDS011;9350;53.176;8.194;2022-09-09T04:58:31;13.15;;;7.80;;
18443;SDS011;9350;53.176;8.194;2022-09-09T05:01:05;12.82;;;8.40;;
18443;SDS011;9350;53.176;8.194;2022-09-09T05:03:32;9.40;;;7.85;;
18443;SDS011;9350;53.176;8.194;2022-09-09T05:06:08;17.40;;;7.85;;
18443;SDS011;9350;53.176;8.194;2022-09-09T05:08:36;11.98;;;7.82;;
18443;SDS011;9350;53.176;8.194;2022-09-09T05:11:04;11.43;;;8.02;;
18443;SDS011;9350;53.176;8.194;2022-09-09T05:13:38;15.20;;;8.55;;
18443;SDS011;9350;53.176;8.194;2022-09-09T05:16:05;12.48;;;7.72;;
18443;SDS011;9350;53.176;8.194;2022-09-09T05:18:31;11.15;;;8.07;;
18443;SDS011;9350;53.176;8.194;2022-09-09T05:20:58;11.13;;;7.93;;
18443;SDS011;9350;53.176;8.194;2022-09-09T05:23:27;11.18;;;7.53;;
18443;SDS011;9350;53.176;8.194;2022-09-09T05:25:57;13.35;;;7.78;;
18443;SDS011;9350;53.176;8.194;2022-09-09T05:28:24;16.48;;;8.40;;
18443;SDS011;9350;53.176;8.194;2022-09-09T05:30:55;11.23;;;7.82;;
18443;SDS011;9350;53.176;8.194;2022-09-09T05:33:23;14.60;;;8.15;;
18443;SDS011;9350;53.176;8.194;2022-09-09T05:35:54;11.65;;;7.97;;
18443;SDS011;9350;53.176;8.194;2022-09-09T05:38:22;9.32;;;6.90;;
18443;SDS011;9350;53.176;8.194;2022-09-09T05:40:51;13.93;;;7.57;;
18443;SDS011;9350;53.176;8.194;2022-09-09T05:43:18;11.05;;;7.47;;
18443;SDS011;9350;53.176;8.194;2022-09-09T05:45:45;11.40;;;7.43;;
18443;SDS011;9350;53.176;8.194;2022-09-09T05:48:12;9.90;;;7.70;;
18443;SDS011;9350;53.176;8.194;2022-09-09T05:50:40;13.15;;;7.38;;
18443;SDS011;9350;53.176;8.194;2022-09-09T05:53:07;11.23;;;7.82;;
18443;SDS011;9350;53.176;8.194;2022-09-09T05:55:34;10.40;;;7.20;;
18443;SDS011;9350;53.176;8.194;2022-09-09T05:58:02;16.58;;;7.82;;
18443;SDS011;9350;53.176;8.194;2022-09-09T06:00:29;9.50;;;7.00;;
18443;SDS011;9350;53.176;8.194;2022-09-09T06:02:57;8.90;;;7.25;;
18443;SDS011;9350;53.176;8.194;2022-09-09T06:05:23;13.85;;;7.55;;
18443;SDS011;9350;53.176;8.194;2022-09-09T06:07:52;14.20;;;6.72;;
18443;SDS011;9350;53.176;8.194;2022-09-09T06:10:19;11.00;;;6.82;;
18443;SDS011;9350;53.176;8.194;2022-09-09T06:12:46;9.95;;;6.93;;
18443;SDS011;9350;53.176;8.194;2022-09-09T06:15:14;10.07;;;6.82;;
18443;SDS011;9350;53.176;8.194;2022-09-09T06:17:42;9.90;;;6.88;;
18443;SDS011;9350;53.176;8.194;2022-09-09T06:20:10;9.25;;;6.47;;
18443;SDS011;9350;53.176;8.194;2022-09-09T06:22:38;12.23;;;6.88;;
18443;SDS011;9350;53.176;8.194;2022-09-09T06:25:06;13.55;;;7.18;;
18443;SDS011;9350;53.176;8.194;2022-09-09T06:27:34;9.18;;;6.88;;
18443;SDS011;9350;53.176;8.194;2022-09-09T06:30:00;10.25;;;6.50;;
18443;SDS011;9350;53.176;8.194;2022-09-09T06:32:29;9.65;;;6.95;;
18443;SDS011;9350;53.176;8.194;2022-09-09T06:34:58;9.85;;;6.65;;
18443;SDS011;9350;53.176;8.194;2022-09-09T06:37:26;7.97;;;6.22;;
18443;SDS011;9350;53.176;8.194;2022-09-09T06:39:53;8.50;;;5.93;;
18443;SDS011;9350;53.176;8.194;2022-09-09T06:42:20;8.10;;;6.00;;
18443;SDS011;9350;53.176;8.194;2022-09-09T06:44:47;9.90;;;6.35;;
18443;SDS011;9350;53.176;8.194;2022-09-09T06:47:13;9.25;;;6.65;;
18443;SDS011;9350;53.176;8.194;2022-09-09T06:49:41;10.38;;;6.50;;
18443;SDS011;9350;53.176;8.194;2022-09-09T06:52:08;7.50;;;5.78;;
18443;SDS011;9350;53.176;8.194;2022-09-09T06:54:35;10.88;;;6.35;;
18443;SDS011;9350;53.176;8.194;2022-09-09T06:57:02;9.85;;;6.35;;
18443;SDS011;9350;53.176;8.194;2022-09-09T06:59:32;9.35;;;6.15;;
18443;SDS011;9350;53.176;8.194;2022-09-09T07:01:58;10.55;;;6.80;;
18443;SDS011;9350;53.176;8.194;2022-09-09T07:04:26;10.95;;;7.32;;
18443;SDS011;9350;53.176;8.194;2022-09-09T07:06:54;12.18;;;7.32;;
18443;SDS011;9350;53.176;8.194;2022-09-09T07:09:21;13.20;;;7.65;;
18443;SDS011;9350;53.176;8.194;2022-09-09T07:11:49;10.45;;;7.50;;
18443;SDS011;9350;53.176;8.194;2022-09-09T07:14:17;11.48;;;7.65;;
18443;SDS011;9350;53.176;8.194;2022-09-09T07:16:45;11.60;;;8.00;;
18443;SDS011;9350;53.176;8.194;2022-09-09T07:19:12;14.35;;;7.85;;
18443;SDS011;9350;53.176;8.194;2022-09-09T07:21:39;9.98;;;7.45;;
18443;SDS011;9350;53.176;8.194;2022-09-09T07:24:07;17.00;;;7.90;;
18443;SDS011;9350;53.176;8.194;2022-09-09T07:26:36;11.20;;;8.00;;
18443;SDS011;9350;53.176;8.194;2022-09-09T07:29:03;10.52;;;8.00;;
18443;SDS011;9350;53.176;8.194;2022-09-09T07:31:31;11.82;;;8.35;;
18443;SDS011;9350;53.176;8.194;2022-09-09T07:33:59;10.85;;;8.02;;
18443;SDS011;9350;53.176;8.194;2022-09-09T07:36:26;8.52;;;6.88;;
18443;SDS011;9350;53.176;8.194;2022-09-09T07:38:55;13.80;;;7.45;;
18443;SDS011;9350;53.176;8.194;2022-09-09T07:41:25;10.35;;;6.97;;
18443;SDS011;9350;53.176;8.194;2022-09-09T07:43:53;14.07;;;7.68;;
18443;SDS011;9350;53.176;8.194;2022-09-09T07:46:21;13.02;;;7.50;;
18443;SDS011;9350;53.176;8.194;2022-09-09T07:48:50;15.13;;;7.72;;
18443;SDS011;9350;53.176;8.194;2022-09-09T07:51:19;12.32;;;7.38;;
18443;SDS011;9350;53.176;8.194;2022-09-09T07:53:48;14.13;;;7.50;;
18443;SDS011;9350;53.176;8.194;2022-09-09T07:56:18;15.25;;;7.75;;
18443;SDS011;9350;53.176;8.194;2022-09-09T07:58:48;12.70;;;7.13;;
18443;SDS011;9350;53.176;8.194;2022-09-09T08:01:16;12.38;;;7.57;;
18443;SDS011;9350;53.176;8.194;2022-09-09T08:03:44;12.63;;;8.00;;
18443;SDS011;9350;53.176;8.194;2022-09-09T08:06:12;12.07;;;7.80;;
18443;SDS011;9350;53.176;8.194;2022-09-09T08:08:40;11.27;;;7.53;;
18443;SDS011;9350;53.176;8.194;2022-09-09T08:11:08;16.02;;;7.82;;
18443;SDS011;9350;53.176;8.194;2022-09-09T08:13:36;12.82;;;8.07;;
18443;SDS011;9350;53.176;8.194;2022-09-09T08:16:09;13.15;;;8.45;;
18443;SDS011;9350;53.176;8.194;2022-09-09T08:18:38;11.52;;;7.85;;
18443;SDS011;9350;53.176;8.194;2022-09-09T08:21:05;13.25;;;9.05;;
18443;SDS011;9350;53.176;8.194;2022-09-09T08:23:34;17.33;;;8.13;;
18443;SDS011;9350;53.176;8.194;2022-09-09T08:26:04;12.45;;;7.95;;
18443;SDS011;9350;53.176;8.194;2022-09-09T08:28:32;10.27;;;8.32;;
18443;SDS011;9350;53.176;8.194;2022-09-09T08:31:12;12.93;;;7.60;;
18443;SDS011;9350;53.176;8.194;2022-09-09T08:33:41;11.38;;;7.32;;
18443;SDS011;9350;53.176;8.194;2022-09-09T08:36:12;11.50;;;7.85;;
18443;SDS011;9350;53.176;8.194;2022-09-09T08:38:40;12.55;;;7.82;;
18443;SDS011;9350;53.176;8.194;2022-09-09T08:41:12;9.32;;;6.65;;
18443;SDS011;9350;53.176;8.194;2022-09-09T08:44:02;11.73;;;6.85;;
18443;SDS011;9350;53.176;8.194;2022-09-09T08:46:35;10.18;;;5.88;;
18443;SDS011;9350;53.176;8.194;2022-09-09T08:49:14;9.32;;;6.40;;
18443;SDS011;9350;53.176;8.194;2022-09-09T08:51:48;9.25;;;5.75;;
18443;SDS011;9350;53.176;8.194;2022-09-09T08:54:16;8.57;;;5.68;;
18443;SDS011;9350;53.176;8.194;2022-09-09T08:56:43;9.65;;;6.43;;
18443;SDS011;9350;53.176;8.194;2022-09-09T08:59:11;14.15;;;6.15;;
18443;SDS011;9350;53.176;8.194;2022-09-09T09:01:48;9.18;;;5.25;;
18443;SDS011;9350;53.176;8.194;2022-09-09T09:04:27;8.30;;;5.53;;
18443;SDS011;9350;53.176;8.194;2022-09-09T09:07:06;11.20;;;5.32;;
18443;SDS011;9350;53.176;8.194;2022-09-09T09:09:42;5.60;;;3.75;;
18443;SDS011;9350;53.176;8.194;2022-09-09T09:12:15;5.88;;;3.92;;
18443;SDS011;9350;53.176;8.194;2022-09-09T09:14:44;4.10;;;3.20;;
18443;SDS011;9350;53.176;8.194;2022-09-09T09:17:15;5.18;;;3.70;;
18443;SDS011;9350;53.176;8.194;2022-09-09T09:19:45;3.65;;;2.65;;
18443;SDS011;9350;53.176;8.194;2022-09-09T09:22:14;6.88;;;3.05;;
18443;SDS011;9350;53.176;8.194;2022-09-09T09:24:45;6.78;;;3.55;;
18443;SDS011;9350;53.176;8.194;2022-09-09T09:27:19;9.85;;;3.22;;
18443;SDS011;9350;53.176;8.194;2022-09-09T09:29:55;5.05;;;3.50;;
18443;SDS011;9350;53.176;8.194;2022-09-09T09:32:25;6.90;;;4.22;;
18443;SDS011;9350;53.176;8.194;2022-09-09T09:34:57;8.90;;;3.95;;
18443;SDS011;9350;53.176;8.194;2022-09-09T09:37:28;5.35;;;4.10;;
18443;SDS011;9350;53.176;8.194;2022-09-09T09:40:07;8.57;;;4.35;;
18443;SDS011;9350;53.176;8.194;2022-09-09T09:42:35;7.47;;;4.28;;
18443;SDS011;9350;53.176;8.194;2022-09-09T09:45:07;5.43;;;4.18;;
18443;SDS011;9350;53.176;8.194;2022-09-09T09:47:36;6.07;;;3.58;;
18443;SDS011;9350;53.176;8.194;2022-09-09T09:50:16;6.82;;;4.10;;
18443;SDS011;9350;53.176;8.194;2022-09-09T09:52:52;6.88;;;4.50;;
18443;SDS011;9350;53.176;8.194;2022-09-09T09:55:21;6.18;;;3.97;;
18443;SDS011;9350;53.176;8.194;2022-09-09T09:57:49;5.70;;;4.03;;
18443;SDS011;9350;53.176;8.194;2022-09-09T10:00:17;7.55;;;3.90;;
18443;SDS011;9350;53.176;8.194;2022-09-09T10:02:47;9.73;;;4.18;;
18443;SDS011;9350;53.176;8.194;2022-09-09T10:05:17;6.25;;;3.47;;
18443;SDS011;9350;53.176;8.194;2022-09-09T10:07:46;6.18;;;3.97;;
18443;SDS011;9350;53.176;8.194;2022-09-09T10:10:15;6.63;;;3.60;;
18443;SDS011;9350;53.176;8.194;2022-09-09T10:12:49;5.22;;;2.80;;
18443;SDS011;9350;53.176;8.194;2022-09-09T10:15:27;4.90;;;3.65;;
18443;SDS011;9350;53.176;8.194;2022-09-09T10:18:06;8.93;;;3.67;;
18443;SDS011;9350;53.176;8.194;2022-09-09T10:20:49;5.80;;;4.25;;
18443;SDS011;9350;53.176;8.194;2022-09-09T10:23:28;6.75;;;3.35;;
18443;SDS011;9350;53.176;8.194;2022-09-09T10:26:19;6.32;;;3.50;;
18443;SDS011;9350;53.176;8.194;2022-09-09T10:29:00;8.85;;;3.17;;
18443;SDS011;9350;53.176;8.194;2022-09-09T10:31:38;7.75;;;3.17;;
18443;SDS011;9350;53.176;8.194;2022-09-09T10:34:20;5.40;;;3.38;;
18443;SDS011;9350;53.176;8.194;2022-09-09T10:37:01;7.05;;;3.15;;
18443;SDS011;9350;53.176;8.194;2022-09-09T10:39:34;5.80;;;2.72;;
18443;SDS011;9350;53.176;8.194;2022-09-09T10:42:06;3.28;;;2.10;;
18443;SDS011;9350;53.176;8.194;2022-09-09T10:44:38;4.95;;;2.40;;
18443;SDS011;9350;53.176;8.194;2022-09-09T10:47:39;6.28;;;2.90;;
18443;SDS011;9350;53.176;8.194;2022-09-09T10:50:21;5.53;;;2.88;;
18443;SDS011;9350;53.176;8.194;2022-09-09T10:53:07;6.10;;;3.30;;
18443;SDS011;9350;53.176;8.194;2022-09-09T10:55:39;7.25;;;2.95;;
18443;SDS011;9350;53.176;8.194;2022-09-09T10:58:10;3.38;;;3.10;;
18443;SDS011;9350;53.176;8.194;2022-09-09T11:00:42;6.13;;;3.38;;
18443;SDS011;9350;53.176;8.194;2022-09-09T11:03:14;8.18;;;3.45;;
18443;SDS011;9350;53.176;8.194;2022-09-09T11:05:47;9.18;;;3.75;;
18443;SDS011;9350;53.176;8.194;2022-09-09T11:08:18;6.43;;;3.33;;
18443;SDS011;9350;53.176;8.194;2022-09-09T11:10:48;4.15;;;3.22;;
18443;SDS011;9350;53.176;8.194;2022-09-09T11:13:20;10.20;;;3.28;;
18443;SDS011;9350;53.176;8.194;2022-09-09T11:15:52;6.05;;;3.25;;
18443;SDS011;9350;53.176;8.194;2022-09-09T11:18:23;9.43;;;3.13;;
18443;SDS011;9350;53.176;8.194;2022-09-09T11:20:53;5.20;;;3.63;;
18443;SDS011;9350;53.176;8.194;2022-09-09T11:23:26;8.23;;;3.08;;
18443;SDS011;9350;53.176;8.194;2022-09-09T11:26:02;5.25;;;3.03;;
18443;SDS011;9350;53.176;8.194;2022-09-09T11:28:36;8.02;;;3.30;;
18443;SDS011;9350;53.176;8.194;2022-09-09T11:31:15;3.10;;;2.55;;
18443;SDS011;9350;53.176;8.194;2022-09-09T11:34:02;7.28;;;3.53;;
18443;SDS011;9350;53.176;8.194;2022-09-09T11:36:56;8.77;;;3.22;;
18443;SDS011;9350;53.176;8.194;2022-09-09T11:39:36;4.28;;;2.92;;
18443;SDS011;9350;53.176;8.194;2022-09-09T11:42:17;5.35;;;3.50;;
18443;SDS011;9350;53.176;8.194;2022-09-09T11:44:46;9.30;;;4.25;;
18443;SDS011;9350;53.176;8.194;2022-09-09T11:47:20;6.72;;;3.80;;
18443;SDS011;9350;53.176;8.194;2022-09-09T11:49:54;7.47;;;3.28;;
18443;SDS011;9350;53.176;8.194;2022-09-09T11:52:23;8.70;;;3.67;;
18443;SDS011;9350;53.176;8.194;2022-09-09T11:54:52;4.50;;;3.45;;
18443;SDS011;9350;53.176;8.194;2022-09-09T11:57:23;6.43;;;3.35;;
18443;SDS011;9350;53.176;8.194;2022-09-09T11:59:56;9.27;;;3.53;;
18443;SDS011;9350;53.176;8.194;2022-09-09T12:02:24;10.32;;;3.63;;
18443;SDS011;9350;53.176;8.194;2022-09-09T12:04:55;8.30;;;4.13;;
18443;SDS011;9350;53.176;8.194;2022-09-09T12:07:31;8.43;;;3.90;;
18443;SDS011;9350;53.176;8.194;2022-09-09T12:10:03;5.45;;;3.60;;
18443;SDS011;9350;53.176;8.194;2022-09-09T12:12:44;7.63;;;3.33;;
18443;SDS011;9350;53.176;8.194;2022-09-09T12:15:22;7.60;;;3.55;;
18443;SDS011;9350;53.176;8.194;2022-09-09T12:17:53;6.97;;;3.50;;
18443;SDS011;9350;53.176;8.194;2022-09-09T12:20:22;9.75;;;3.90;;
18443;SDS011;9350;53.176;8.194;2022-09-09T12:23:04;10.25;;;4.20;;
18443;SDS011;9350;53.176;8.194;2022-09-09T12:25:49;11.73;;;5.00;;
18443;SDS011;9350;53.176;8.194;2022-09-09T12:28:27;10.65;;;6.00;;
18443;SDS011;9350;53.176;8.194;2022-09-09T12:31:08;26.60;;;7.85;;
18443;SDS011;9350;53.176;8.194;2022-09-09T12:33:42;17.65;;;7.88;;
18443;SDS011;9350;53.176;8.194;2022-09-09T12:36:13;17.88;;;8.80;;
18443;SDS011;9350;53.176;8.194;2022-09-09T12:38:43;14.90;;;7.90;;
18443;SDS011;9350;53.176;8.194;2022-09-09T12:41:17;19.75;;;10.05;;
18443;SDS011;9350;53.176;8.194;2022-09-09T12:43:46;11.90;;;8.93;;
18443;SDS011;9350;53.176;8.194;2022-09-09T12:46:16;16.05;;;9.20;;
18443;SDS011;9350;53.176;8.194;2022-09-09T12:48:53;11.82;;;8.48;;
18443;SDS011;9350;53.176;8.194;2022-09-09T12:51:21;14.38;;;9.68;;
18443;SDS011;9350;53.176;8.194;2022-09-09T12:53:53;18.17;;;10.93;;
18443;SDS011;9350;53.176;8.194;2022-09-09T12:56:21;20.55;;;12.13;;
18443;SDS011;9350;53.176;8.194;2022-09-09T12:58:52;19.67;;;11.05;;
18443;SDS011;9350;53.176;8.194;2022-09-09T13:01:22;22.38;;;12.65;;
18443;SDS011;9350;53.176;8.194;2022-09-09T13:03:50;16.00;;;11.10;;
18443;SDS011;9350;53.176;8.194;2022-09-09T13:06:19;18.58;;;13.05;;
18443;SDS011;9350;53.176;8.194;2022-09-09T13:08:48;18.45;;;11.07;;
18443;SDS011;9350;53.176;8.194;2022-09-09T13:11:17;16.55;;;10.68;;
18443;SDS011;9350;53.176;8.194;2022-09-09T13:13:50;18.25;;;9.82;;
18443;SDS011;9350;53.176;8.194;2022-09-09T13:16:19;17.85;;;9.70;;
18443;SDS011;9350;53.176;8.194;2022-09-09T13:18:47;16.55;;;9.70;;
18443;SDS011;9350;53.176;8.194;2022-09-09T13:21:15;14.77;;;11.35;;
18443;SDS011;9350;53.176;8.194;2022-09-09T13:23:42;10.48;;;8.32;;
18443;SDS011;9350;53.176;8.194;2022-09-09T13:26:23;18.15;;;9.82;;
18443;SDS011;9350;53.176;8.194;2022-09-09T13:28:52;18.48;;;10.15;;
18443;SDS011;9350;53.176;8.194;2022-09-09T13:31:20;18.20;;;11.00;;
18443;SDS011;9350;53.176;8.194;2022-09-09T13:33:52;17.08;;;9.02;;
18443;SDS011;9350;53.176;8.194;2022-09-09T13:36:27;14.95;;;9.15;;
18443;SDS011;9350;53.176;8.194;2022-09-09T13:38:55;16.15;;;9.05;;
18443;SDS011;9350;53.176;8.194;2022-09-09T13:41:27;14.15;;;8.80;;
18443;SDS011;9350;53.176;8.194;2022-09-09T13:43:57;14.68;;;8.38;;
18443;SDS011;9350;53.176;8.194;2022-09-09T13:46:32;12.73;;;7.88;;
18443;SDS011;9350;53.176;8.194;2022-09-09T13:49:01;10.95;;;7.68;;
18443;SDS011;9350;53.176;8.194;2022-09-09T13:51:44;10.23;;;7.72;;
18443;SDS011;9350;53.176;8.194;2022-09-09T13:54:14;7.45;;;6.60;;
18443;SDS011;9350;53.176;8.194;2022-09-09T13:56:43;12.68;;;7.60;;
18443;SDS011;9350;53.176;8.194;2022-09-09T13:59:12;13.23;;;6.70;;
18443;SDS011;9350;53.176;8.194;2022-09-09T14:01:41;13.95;;;6.60;;
18443;SDS011;9350;53.176;8.194;2022-09-09T14:04:09;10.02;;;6.07;;
18443;SDS011;9350;53.176;8.194;2022-09-09T14:06:36;8.50;;;5.22;;
18443;SDS011;9350;53.176;8.194;2022-09-09T14:09:04;9.98;;;5.13;;
18443;SDS011;9350;53.176;8.194;2022-09-09T14:11:31;16.25;;;5.40;;
18443;SDS011;9350;53.176;8.194;2022-09-09T14:13:59;6.82;;;3.90;;
18443;SDS011;9350;53.176;8.194;2022-09-09T14:16:26;5.45;;;3.58;;
18443;SDS011;9350;53.176;8.194;2022-09-09T14:18:53;6.10;;;3.25;;
18443;SDS011;9350;53.176;8.194;2022-09-09T14:21:21;4.75;;;2.80;;
18443;SDS011;9350;53.176;8.194;2022-09-09T14:23:47;3.55;;;3.25;;
18443;SDS011;9350;53.176;8.194;2022-09-09T14:26:14;7.25;;;3.15;;
18443;SDS011;9350;53.176;8.194;2022-09-09T14:28:41;4.72;;;3.22;;
18443;SDS011;9350;53.176;8.194;2022-09-09T14:31:09;4.00;;;2.55;;
18443;SDS011;9350;53.176;8.194;2022-09-09T14:33:38;4.82;;;2.80;;
18443;SDS011;9350;53.176;8.194;2022-09-09T14:36:05;3.65;;;2.35;;
18443;SDS011;9350;53.176;8.194;2022-09-09T14:38:33;3.83;;;2.70;;
18443;SDS011;9350;53.176;8.194;2022-09-09T14:41:03;5.35;;;2.53;;
18443;SDS011;9350;53.176;8.194;2022-09-09T14:43:30;5.07;;;3.13;;
18443;SDS011;9350;53.176;8.194;2022-09-09T14:45:57;4.70;;;2.63;;
18443;SDS011;9350;53.176;8.194;2022-09-09T14:48:25;4.75;;;2.95;;
18443;SDS011;9350;53.176;8.194;2022-09-09T14:50:52;5.15;;;2.67;;
18443;SDS011;9350;53.176;8.194;2022-09-09T14:53:20;6.27;;;3.03;;
18443;SDS011;9350;53.176;8.194;2022-09-09T14:55:47;7.35;;;3.28;;
18443;SDS011;9350;53.176;8.194;2022-09-09T14:58:14;6.70;;;3.00;;
18443;SDS011;9350;53.176;8.194;2022-09-09T15:00:40;5.20;;;3.10;;
18443;SDS011;9350;53.176;8.194;2022-09-09T15:03:07;2.92;;;2.60;;
18443;SDS011;9350;53.176;8.194;2022-09-09T15:05:37;5.88;;;3.35;;
18443;SDS011;9350;53.176;8.194;2022-09-09T15:08:03;2.70;;;2.50;;
18443;SDS011;9350;53.176;8.194;2022-09-09T15:10:30;4.95;;;2.72;;